createdAt,value
2022-12-05T00:00:35.937Z,23.87
2022-12-05T00:02:39.056Z,25.87
2022-12-05T00:04:42.270Z,28.57
2022-12-05T00:06:46.626Z,28.83
2022-12-05T00:08:50.397Z,22.87
2022-12-05T00:10:53.463Z,22.83
2022-12-05T00:12:56.630Z,24.47
2022-12-05T00:14:59.661Z,29.93
2022-12-05T00:17:02.809Z,23.13
2022-12-05T00:19:06.952Z,28.00
2022-12-05T00:21:14.851Z,23.30
2022-12-05T00:23:19.426Z,22.20
2022-12-05T00:25:22.314Z,25.60
2022-12-05T00:27:25.238Z,26.80
2022-12-05T00:29:28.267Z,32.77
2022-12-05T00:31:31.230Z,25.60
2022-12-05T00:33:34.392Z,27.97
2022-12-05T00:35:38.581Z,28.07
2022-12-05T00:37:41.604Z,24.00
2022-12-05T00:39:46.173Z,29.53
2022-12-05T00:41:49.070Z,28.40
2022-12-05T00:43:52.438Z,28.17
2022-12-05T00:45:55.402Z,30.10
2022-12-05T00:47:58.373Z,28.50
2022-12-05T00:50:01.261Z,25.70
2022-12-05T00:52:04.186Z,26.17
2022-12-05T00:54:08.639Z,24.00
2022-12-05T00:56:15.943Z,30.20
2022-12-05T00:58:18.794Z,28.70
2022-12-05T01:00:21.942Z,23.90
2022-12-05T01:02:24.811Z,29.77
2022-12-05T01:04:27.856Z,27.20
2022-12-05T01:06:31.003Z,26.90
2022-12-05T01:08:34.658Z,30.00
2022-12-05T01:10:39.058Z,27.77
2022-12-05T01:12:43.432Z,27.93
2022-12-05T01:14:46.544Z,28.87
2022-12-05T01:16:51.201Z,28.60
2022-12-05T01:18:54.479Z,31.10
2022-12-05T01:20:57.773Z,30.10
2022-12-05T01:23:01.043Z,32.50
2022-12-05T01:25:05.155Z,26.03
2022-12-05T01:27:08.403Z,30.83
2022-12-05T01:29:13.910Z,30.37
2022-12-05T01:31:20.315Z,31.63
2022-12-05T01:33:23.246Z,24.77
2022-12-05T01:35:27.035Z,27.57
2022-12-05T01:37:29.912Z,24.40
2022-12-05T01:39:32.768Z,22.90
2022-12-05T01:41:37.244Z,24.83
2022-12-05T01:43:55.228Z,25.23
2022-12-05T01:45:59.547Z,28.03
2022-12-05T01:48:05.167Z,23.97
2022-12-05T01:50:09.551Z,26.50
2022-12-05T01:52:15.404Z,31.00
2022-12-05T01:54:19.538Z,24.47
2022-12-05T01:56:22.669Z,34.97
2022-12-05T01:58:29.762Z,24.50
2022-12-05T02:00:32.940Z,33.13
2022-12-05T02:02:37.320Z,26.80
2022-12-05T02:04:47.467Z,27.90
2022-12-05T02:06:50.342Z,24.50
2022-12-05T02:08:54.158Z,30.37
2022-12-05T02:10:58.644Z,28.37
2022-12-05T02:13:07.443Z,25.47
2022-12-05T02:15:28.347Z,26.10
2022-12-05T02:17:40.260Z,29.23
2022-12-05T02:19:57.076Z,27.60
2022-12-05T02:22:15.495Z,30.73
2022-12-05T02:24:34.642Z,28.57
2022-12-05T02:26:49.486Z,27.40
2022-12-05T02:29:04.061Z,24.40
2022-12-05T02:31:12.293Z,33.50
2022-12-05T02:33:22.385Z,25.93
2022-12-05T02:35:39.041Z,27.80
2022-12-05T02:37:45.847Z,27.17
2022-12-05T02:39:54.254Z,23.17
2022-12-05T02:42:03.371Z,27.50
2022-12-05T02:44:09.179Z,26.03
2022-12-05T02:46:15.937Z,28.63
2022-12-05T02:48:20.037Z,31.40
2022-12-05T02:50:33.542Z,24.23
2022-12-05T02:52:37.092Z,29.23
2022-12-05T02:54:42.824Z,21.73
2022-12-05T02:56:47.183Z,28.70
2022-12-05T02:58:53.263Z,29.40
2022-12-05T03:00:58.111Z,24.40
2022-12-05T03:03:02.610Z,27.60
2022-12-05T03:05:14.095Z,24.47
2022-12-05T03:07:18.048Z,32.73
2022-12-05T03:09:23.725Z,22.17
2022-12-05T03:11:27.605Z,29.43
2022-12-05T03:13:34.246Z,24.73
2022-12-05T03:15:39.648Z,24.10
2022-12-05T03:17:45.396Z,26.37
2022-12-05T03:19:53.828Z,31.80
2022-12-05T03:22:02.196Z,28.93
2022-12-05T03:24:08.082Z,28.97
2022-12-05T03:26:17.368Z,21.23
2022-12-05T03:28:25.231Z,24.50
2022-12-05T03:30:28.132Z,23.87
2022-12-05T03:32:35.493Z,24.80
2022-12-05T03:34:57.697Z,24.20
2022-12-05T03:37:04.459Z,23.83
2022-12-05T03:39:11.626Z,30.73
2022-12-05T03:41:18.705Z,27.07
2022-12-05T03:43:25.697Z,23.60
2022-12-05T03:45:33.121Z,25.70
2022-12-05T03:47:42.161Z,25.80
2022-12-05T03:49:48.126Z,27.63
2022-12-05T03:51:54.876Z,26.90
2022-12-05T03:54:00.161Z,28.30
2022-12-05T03:56:06.654Z,25.23
2022-12-05T03:58:12.298Z,25.33
2022-12-05T04:00:19.436Z,28.60
2022-12-05T04:02:27.122Z,31.73
2022-12-05T04:04:33.181Z,29.77
2022-12-05T04:06:39.103Z,30.47
2022-12-05T04:08:46.602Z,33.80
2022-12-05T04:10:50.890Z,31.33
2022-12-05T04:12:56.167Z,30.10
2022-12-05T04:15:01.003Z,25.33
2022-12-05T04:17:05.161Z,26.10
2022-12-05T04:19:11.341Z,31.57
2022-12-05T04:21:32.086Z,30.20
2022-12-05T04:23:35.851Z,29.13
2022-12-05T04:25:47.671Z,25.43
2022-12-05T04:27:56.032Z,28.10
2022-12-05T04:30:04.757Z,31.40
2022-12-05T04:32:10.027Z,28.37
2022-12-05T04:34:15.702Z,25.60
2022-12-05T04:36:21.563Z,30.63
2022-12-05T04:38:26.637Z,27.20
2022-12-05T04:40:34.278Z,28.97
2022-12-05T04:42:39.603Z,27.07
2022-12-05T04:44:46.602Z,29.53
2022-12-05T04:46:51.362Z,28.50
2022-12-05T04:48:57.531Z,27.27
2022-12-05T04:51:00.520Z,26.70
2022-12-05T04:53:04.826Z,24.93
2022-12-05T04:55:11.029Z,28.87
2022-12-05T04:57:17.080Z,26.97
2022-12-05T04:59:21.273Z,29.50
2022-12-05T05:01:26.544Z,31.60
2022-12-05T05:03:32.947Z,25.83
2022-12-05T05:05:36.463Z,23.87
2022-12-05T05:07:44.907Z,28.37
2022-12-05T05:09:47.932Z,29.70
2022-12-05T05:11:50.805Z,32.63
2022-12-05T05:13:54.295Z,28.17
2022-12-05T05:15:58.847Z,27.97
2022-12-05T05:18:01.753Z,27.30
2022-12-05T05:20:20.206Z,26.63
2022-12-05T05:22:23.404Z,28.53
2022-12-05T05:24:26.504Z,26.00
2022-12-05T05:26:30.578Z,23.63
2022-12-05T05:28:33.449Z,24.20
2022-12-05T05:30:36.685Z,25.50
2022-12-05T05:32:40.926Z,20.83
2022-12-05T05:34:43.842Z,25.83
2022-12-05T05:36:46.992Z,25.47
2022-12-05T05:38:51.688Z,27.57
2022-12-05T05:40:54.647Z,22.53
2022-12-05T05:42:59.091Z,24.17
2022-12-05T05:45:01.981Z,26.50
2022-12-05T05:47:05.088Z,23.70
2022-12-05T05:49:09.543Z,26.70
2022-12-05T05:51:13.701Z,24.63
2022-12-05T05:53:16.577Z,28.63
2022-12-05T05:55:19.721Z,27.27
2022-12-05T05:57:22.586Z,24.47
2022-12-05T05:59:25.454Z,27.17
2022-12-05T06:01:29.581Z,27.70
2022-12-05T06:03:32.882Z,26.70
2022-12-05T06:05:37.517Z,26.83
2022-12-05T06:07:40.837Z,24.70
2022-12-05T06:09:44.039Z,27.40
2022-12-05T06:11:47.115Z,26.20
2022-12-05T06:13:50.229Z,34.83
2022-12-05T06:15:53.654Z,28.90
2022-12-05T06:17:57.807Z,26.80
2022-12-05T06:20:01.159Z,24.63
2022-12-05T06:22:05.585Z,22.10
2022-12-05T06:24:10.241Z,28.67
2022-12-05T06:26:15.255Z,25.57
2022-12-05T06:28:18.929Z,26.73
2022-12-05T06:30:22.008Z,35.70
2022-12-05T06:32:25.216Z,27.50
2022-12-05T06:34:28.216Z,28.97
2022-12-05T06:36:32.099Z,25.80
2022-12-05T06:38:41.599Z,28.77
2022-12-05T06:40:46.924Z,23.70
2022-12-05T06:42:50.080Z,24.50
2022-12-05T06:44:53.051Z,22.40
2022-12-05T06:46:56.625Z,25.47
2022-12-05T06:49:00.412Z,24.03
2022-12-05T06:51:03.634Z,20.37
2022-12-05T06:53:06.809Z,21.93
2022-12-05T06:55:12.053Z,23.30
2022-12-05T06:57:15.258Z,19.77
2022-12-05T06:59:18.402Z,19.90
2022-12-05T07:01:44.073Z,23.53
2022-12-05T07:03:49.364Z,20.57
2022-12-05T07:05:52.843Z,21.57
2022-12-05T07:07:56.263Z,18.73
2022-12-05T07:09:59.695Z,19.83
2022-12-05T07:12:04.127Z,16.70
2022-12-05T07:14:19.159Z,15.40
2022-12-05T07:16:27.940Z,16.83
2022-12-05T07:18:30.907Z,16.37
2022-12-05T07:20:49.545Z,18.73
2022-12-05T07:22:56.986Z,13.93
2022-12-05T07:25:00.219Z,16.70
2022-12-05T07:27:04.806Z,16.63
2022-12-05T07:29:07.872Z,14.40
2022-12-05T07:31:13.937Z,15.33
2022-12-05T07:33:16.839Z,19.23
2022-12-05T07:35:19.755Z,13.50
2022-12-05T07:37:22.757Z,16.50
2022-12-05T07:39:25.617Z,17.80
2022-12-05T07:41:30.474Z,14.50
2022-12-05T07:43:34.706Z,18.60
2022-12-05T07:45:37.834Z,19.60
2022-12-05T07:47:40.818Z,16.67
2022-12-05T07:49:43.791Z,17.60
2022-12-05T07:51:46.646Z,13.90
2022-12-05T07:53:49.675Z,15.30
2022-12-05T07:55:52.862Z,24.13
2022-12-05T07:57:55.739Z,28.23
2022-12-05T08:00:00.548Z,19.13
2022-12-05T08:02:03.803Z,18.73
2022-12-05T08:04:10.717Z,16.20
2022-12-05T08:06:18.985Z,13.60
2022-12-05T08:08:22.339Z,15.47
2022-12-05T08:10:25.323Z,15.40
2022-12-05T08:12:28.460Z,15.13
2022-12-05T08:14:31.304Z,13.10
2022-12-05T08:16:35.865Z,14.80
2022-12-05T08:18:39.600Z,15.90
2022-12-05T08:20:42.867Z,17.40
2022-12-05T08:22:45.756Z,17.97
2022-12-05T08:24:56.175Z,14.20
2022-12-05T08:26:59.483Z,13.90
2022-12-05T08:29:04.649Z,13.67
2022-12-05T08:31:10.033Z,14.40
2022-12-05T08:33:14.402Z,14.60
2022-12-05T08:35:17.293Z,15.33
2022-12-05T08:37:20.561Z,14.07
2022-12-05T08:39:23.477Z,16.97
2022-12-05T08:41:28.856Z,17.37
2022-12-05T08:43:32.344Z,14.57
2022-12-05T08:45:35.153Z,14.73
2022-12-05T08:47:38.038Z,12.80
2022-12-05T08:49:42.272Z,12.77
2022-12-05T08:51:45.377Z,12.57
2022-12-05T08:53:48.721Z,12.20
2022-12-05T08:55:51.784Z,16.13
2022-12-05T08:57:54.824Z,13.30
2022-12-05T08:59:58.724Z,17.93
2022-12-05T09:02:02.106Z,16.60
2022-12-05T09:04:06.204Z,14.67
2022-12-05T09:06:12.053Z,18.30
2022-12-05T09:08:15.091Z,15.20
2022-12-05T09:10:18.695Z,17.30
2022-12-05T09:12:21.633Z,18.33
2022-12-05T09:14:25.398Z,16.70
2022-12-05T09:16:36.526Z,13.73
2022-12-05T09:18:40.376Z,16.43
2022-12-05T09:20:43.308Z,22.73
2022-12-05T09:22:47.854Z,15.50
2022-12-05T09:24:50.859Z,16.67
2022-12-05T09:26:53.777Z,15.70
2022-12-05T09:28:57.042Z,13.23
2022-12-05T09:31:02.015Z,13.20
2022-12-05T09:33:05.301Z,14.93
2022-12-05T09:35:08.978Z,12.83
2022-12-05T09:37:37.555Z,12.80
2022-12-05T09:39:37.609Z,16.67
2022-12-05T09:42:09.065Z,14.20
2022-12-05T09:44:17.914Z,14.47
2022-12-05T09:46:28.396Z,16.13
2022-12-05T09:48:33.941Z,17.67
2022-12-05T09:50:43.249Z,16.30
2022-12-05T09:53:11.907Z,16.07
2022-12-05T09:55:18.827Z,15.77
2022-12-05T09:57:33.533Z,16.23
2022-12-05T09:59:37.260Z,14.27
2022-12-05T10:01:43.277Z,17.50
2022-12-05T10:03:48.820Z,16.17
2022-12-05T10:05:56.942Z,19.40
2022-12-05T10:08:07.142Z,17.87
2022-12-05T10:10:25.658Z,18.80
2022-12-05T10:12:44.314Z,17.47
2022-12-05T10:14:53.286Z,17.00
2022-12-05T10:16:58.131Z,17.17
2022-12-05T10:19:04.858Z,20.43
2022-12-05T10:21:14.539Z,16.80
2022-12-05T10:23:48.956Z,16.70
2022-12-05T10:25:45.009Z,14.33
2022-12-05T10:27:51.278Z,13.70
2022-12-05T10:30:00.870Z,14.97
2022-12-05T10:32:06.980Z,14.50
2022-12-05T10:34:15.017Z,19.47
2022-12-05T10:36:18.128Z,14.53
2022-12-05T10:38:25.274Z,13.83
2022-12-05T10:40:33.458Z,14.23
2022-12-05T10:42:37.976Z,15.70
2022-12-05T10:44:41.243Z,13.47
2022-12-05T10:46:44.317Z,17.30
2022-12-05T10:48:47.454Z,14.10
2022-12-05T10:50:53.228Z,13.60
2022-12-05T10:52:57.914Z,11.53
2022-12-05T10:55:04.222Z,16.07
2022-12-05T10:57:21.826Z,16.00
2022-12-05T10:59:28.331Z,17.47
2022-12-05T11:01:31.538Z,14.83
2022-12-05T11:03:39.840Z,18.87
2022-12-05T11:05:42.992Z,14.20
2022-12-05T11:07:49.701Z,13.73
2022-12-05T11:09:53.668Z,18.43
2022-12-05T11:12:14.602Z,16.27
2022-12-05T11:14:23.467Z,22.30
2022-12-05T11:16:30.883Z,19.60
2022-12-05T11:18:35.564Z,15.63
2022-12-05T11:20:41.796Z,18.80
2022-12-05T11:22:48.733Z,14.47
2022-12-05T11:24:52.007Z,14.57
2022-12-05T11:26:56.541Z,16.73
2022-12-05T11:28:59.499Z,14.27
2022-12-05T11:31:04.104Z,15.07
2022-12-05T11:33:17.386Z,13.80
2022-12-05T11:35:26.967Z,13.27
2022-12-05T11:37:32.946Z,13.97
2022-12-05T11:39:35.857Z,14.07
2022-12-05T11:41:55.482Z,16.40
2022-12-05T11:44:11.010Z,11.40
2022-12-05T11:46:26.439Z,14.20
2022-12-05T11:48:46.669Z,13.23
2022-12-05T11:50:56.740Z,12.57
2022-12-05T11:53:12.261Z,14.77
2022-12-05T11:55:18.027Z,14.60
2022-12-05T11:57:29.843Z,15.37
2022-12-05T12:00:03.402Z,16.50
2022-12-05T12:02:25.869Z,14.60
2022-12-05T12:04:38.753Z,16.10
2022-12-05T12:06:49.222Z,15.47
2022-12-05T12:09:02.512Z,15.60
2022-12-05T12:11:13.889Z,17.17
2022-12-05T12:13:30.413Z,15.57
2022-12-05T12:15:46.571Z,19.93
2022-12-05T12:17:56.963Z,17.57
2022-12-05T12:20:19.975Z,19.93
2022-12-05T12:22:35.425Z,19.60
2022-12-05T12:25:02.823Z,18.67
2022-12-05T12:27:14.867Z,20.70
2022-12-05T12:29:26.352Z,21.90
2022-12-05T12:31:37.236Z,16.83
2022-12-05T12:33:44.930Z,18.00
2022-12-05T12:35:52.707Z,19.83
2022-12-05T12:38:08.577Z,22.23
2022-12-05T12:40:16.216Z,23.07
2022-12-05T12:42:25.910Z,18.60
2022-12-05T12:44:51.656Z,19.50
2022-12-05T12:46:57.189Z,19.40
2022-12-05T12:49:12.619Z,22.47
2022-12-05T12:51:17.180Z,23.23
2022-12-05T12:53:47.125Z,20.83
2022-12-05T12:55:54.237Z,17.77
2022-12-05T12:58:07.770Z,19.77
2022-12-05T13:00:18.881Z,20.40
2022-12-05T13:02:28.156Z,19.93
2022-12-05T13:04:34.579Z,24.00
2022-12-05T13:06:43.379Z,18.40
2022-12-05T13:08:49.963Z,17.60
2022-12-05T13:10:53.520Z,20.00
2022-12-05T13:12:57.106Z,21.13
2022-12-05T13:15:02.400Z,21.93
2022-12-05T13:17:07.995Z,22.80
2022-12-05T13:19:24.860Z,20.70
2022-12-05T13:21:28.760Z,19.70
2022-12-05T13:23:35.434Z,24.03
2022-12-05T13:25:40.174Z,25.50
2022-12-05T13:27:55.377Z,21.47
2022-12-05T13:30:01.338Z,25.90
2022-12-05T13:32:05.626Z,25.07
2022-12-05T13:34:48.670Z,25.60
2022-12-05T13:37:09.115Z,28.73
2022-12-05T13:39:37.916Z,23.87
2022-12-05T13:42:00.115Z,26.07
2022-12-05T13:44:06.763Z,25.13
2022-12-05T13:46:12.062Z,24.53
2022-12-05T13:48:23.028Z,26.10
2022-12-05T13:50:31.778Z,22.13
2022-12-05T13:52:42.608Z,21.90
2022-12-05T13:54:51.158Z,19.60
2022-12-05T13:56:55.909Z,22.23
2022-12-05T13:58:59.535Z,20.60
2022-12-05T14:01:40.772Z,22.40
2022-12-05T14:03:58.310Z,20.03
2022-12-05T14:06:01.863Z,21.97
2022-12-05T14:08:46.426Z,19.67
2022-12-05T14:11:14.276Z,20.97
2022-12-05T14:13:42.675Z,28.17
2022-12-05T14:15:46.578Z,24.57
2022-12-05T14:17:50.316Z,25.80
2022-12-05T14:20:05.899Z,27.20
2022-12-05T14:22:21.169Z,23.73
2022-12-05T14:24:28.590Z,22.23
2022-12-05T14:26:41.731Z,24.33
2022-12-05T14:28:55.849Z,23.70
2022-12-05T14:31:15.430Z,22.50
2022-12-05T14:33:19.122Z,23.03
2022-12-05T14:35:27.130Z,31.10
2022-12-05T14:37:31.886Z,22.43
2022-12-05T14:39:40.893Z,24.57
2022-12-05T14:41:47.752Z,29.50
2022-12-05T14:43:53.466Z,22.20
2022-12-05T14:46:00.294Z,23.47
2022-12-05T14:48:04.739Z,19.10
2022-12-05T14:50:37.745Z,21.20
2022-12-05T14:52:41.180Z,21.23
2022-12-05T14:54:44.731Z,19.03
2022-12-05T14:56:54.707Z,19.87
2022-12-05T14:59:00.979Z,21.17
2022-12-05T15:01:07.720Z,18.97
2022-12-05T15:03:20.716Z,22.97
2022-12-05T15:05:25.825Z,18.77
2022-12-05T15:07:33.195Z,16.80
2022-12-05T15:09:48.905Z,19.33
2022-12-05T15:11:53.637Z,19.55
2022-12-05T15:13:59.463Z,22.33
2022-12-05T15:16:05.368Z,22.10
2022-12-05T15:18:15.134Z,18.43
2022-12-05T15:20:23.386Z,17.40
2022-12-05T15:22:28.158Z,25.23
2022-12-05T15:24:38.434Z,17.67
2022-12-05T15:26:47.915Z,17.93
2022-12-05T15:29:07.927Z,18.00
2022-12-05T15:31:13.773Z,18.77
2022-12-05T15:33:18.468Z,16.93
2022-12-05T15:35:22.126Z,18.10
2022-12-05T15:37:27.109Z,18.30
2022-12-05T15:39:30.242Z,17.73
2022-12-05T15:41:33.374Z,21.67
2022-12-05T15:43:37.424Z,19.97
2022-12-05T15:45:42.044Z,17.03
2022-12-05T15:47:46.333Z,25.13
2022-12-05T15:49:49.565Z,16.20
2022-12-05T15:51:55.133Z,18.50
2022-12-05T15:54:02.015Z,16.07
2022-12-05T15:56:07.189Z,20.57
2022-12-05T15:58:15.856Z,17.80
2022-12-05T16:00:22.154Z,18.93
2022-12-05T16:02:30.312Z,18.37
2022-12-05T16:04:36.812Z,17.80
2022-12-05T16:06:42.135Z,18.50
2022-12-05T16:08:46.047Z,14.77
2022-12-05T16:10:49.038Z,18.40
2022-12-05T16:12:52.642Z,17.60
2022-12-05T16:15:00.574Z,15.47
2022-12-05T16:17:04.924Z,19.00
2022-12-05T16:19:15.989Z,23.00
2022-12-05T16:21:38.805Z,22.40
2022-12-05T16:23:44.030Z,19.53
2022-12-05T16:25:47.047Z,19.60
2022-12-05T16:27:58.498Z,18.90
2022-12-05T16:30:10.968Z,15.23
2022-12-05T16:32:21.619Z,15.97
2022-12-05T16:34:27.058Z,18.67
2022-12-05T16:36:30.063Z,14.60
2022-12-05T16:38:33.227Z,14.03
2022-12-05T16:40:36.352Z,17.90
2022-12-05T16:42:39.810Z,17.30
2022-12-05T16:45:01.857Z,23.30
2022-12-05T16:47:05.417Z,20.13
2022-12-05T16:49:25.924Z,19.00
2022-12-05T16:51:41.612Z,15.47
2022-12-05T16:53:47.772Z,54.70
2022-12-05T16:55:51.251Z,19.37
2022-12-05T16:57:54.483Z,22.13
2022-12-05T16:59:58.318Z,14.83
2022-12-05T17:02:02.251Z,19.70
2022-12-05T17:04:05.860Z,13.17
2022-12-05T17:06:10.428Z,20.13
2022-12-05T17:08:13.956Z,15.00
2022-12-05T17:10:18.719Z,14.47
2022-12-05T17:12:24.285Z,20.53
2022-12-05T17:14:27.301Z,13.90
2022-12-05T17:16:30.554Z,13.20
2022-12-05T17:18:34.141Z,17.57
2022-12-05T17:20:39.817Z,14.63
2022-12-05T17:22:52.908Z,13.60
2022-12-05T17:24:59.771Z,14.27
2022-12-05T17:27:03.228Z,14.57
2022-12-05T17:29:06.382Z,12.27
2022-12-05T17:31:11.092Z,25.73
2022-12-05T17:33:15.942Z,14.37
2022-12-05T17:35:21.070Z,18.90
2022-12-05T17:37:24.231Z,13.00
2022-12-05T17:39:29.063Z,11.83
2022-12-05T17:41:32.336Z,17.07
2022-12-05T17:43:35.555Z,13.60
2022-12-05T17:45:38.506Z,18.40
2022-12-05T17:47:41.873Z,14.30
2022-12-05T17:49:45.256Z,15.10
2022-12-05T17:52:20.026Z,17.63
2022-12-05T17:54:12.233Z,13.27
2022-12-05T17:56:16.647Z,16.23
2022-12-05T17:58:19.571Z,15.47
2022-12-05T18:00:23.633Z,15.50
2022-12-05T18:02:26.646Z,12.93
2022-12-05T18:04:29.559Z,16.20
2022-12-05T18:06:33.614Z,14.83
2022-12-05T18:08:39.610Z,16.40
2022-12-05T18:10:43.652Z,14.40
2022-12-05T18:12:48.569Z,15.17
2022-12-05T18:14:51.711Z,15.23
2022-12-05T18:16:54.858Z,14.10
2022-12-05T18:18:57.889Z,13.97
2022-12-05T18:21:07.957Z,17.37
2022-12-05T18:23:11.118Z,15.43
2022-12-05T18:25:14.145Z,12.03
2022-12-05T18:27:17.183Z,19.10
2022-12-05T18:29:22.352Z,16.00
2022-12-05T18:31:25.587Z,13.27
2022-12-05T18:33:28.604Z,11.17
2022-12-05T18:35:52.073Z,12.77
2022-12-05T18:37:55.097Z,10.33
2022-12-05T18:39:58.030Z,15.67
2022-12-05T18:42:01.198Z,13.17
2022-12-05T18:44:04.171Z,15.00
2022-12-05T18:46:08.766Z,14.10
2022-12-05T18:50:36.323Z,15.87
2022-12-05T18:52:39.315Z,15.30
2022-12-05T18:54:42.327Z,16.63
2022-12-05T18:56:46.402Z,18.10
2022-12-05T18:58:54.623Z,16.77
2022-12-05T19:01:05.333Z,14.07
2022-12-05T19:03:09.764Z,16.77
2022-12-05T19:05:15.443Z,15.20
2022-12-05T19:07:18.441Z,13.93
2022-12-05T19:09:35.896Z,14.60
2022-12-05T19:11:47.003Z,15.03
2022-12-05T19:13:50.410Z,16.13
2022-12-05T19:15:54.521Z,15.63
2022-12-05T19:18:00.372Z,14.43
2022-12-05T19:20:06.104Z,13.00
2022-12-05T19:22:09.050Z,17.30
2022-12-05T19:24:16.250Z,13.27
2022-12-05T19:26:23.313Z,13.30
2022-12-05T19:28:26.291Z,16.63
2022-12-05T19:30:29.380Z,15.30
2022-12-05T19:32:35.456Z,12.70
2022-12-05T19:34:42.705Z,11.67
2022-12-05T19:36:47.490Z,14.37
2022-12-05T19:38:52.461Z,14.37
2022-12-05T19:40:57.051Z,14.47
2022-12-05T19:43:00.307Z,15.67
2022-12-05T19:45:07.832Z,12.80
2022-12-05T19:47:12.488Z,13.70
2022-12-05T19:49:17.220Z,14.73
2022-12-05T19:51:20.515Z,17.10
2022-12-05T19:53:25.757Z,11.47
2022-12-05T19:55:31.380Z,13.70
2022-12-05T19:57:36.727Z,15.40
2022-12-05T19:59:39.681Z,15.30
2022-12-05T20:01:42.619Z,14.70
2022-12-05T20:03:48.789Z,15.70
2022-12-05T20:05:58.411Z,13.40
2022-12-05T20:08:07.429Z,14.63
2022-12-05T20:10:12.461Z,15.63
2022-12-05T20:12:15.368Z,16.93
2022-12-05T20:14:18.891Z,14.53
2022-12-05T20:16:23.123Z,15.10
2022-12-05T20:18:28.307Z,10.30
2022-12-05T20:20:33.891Z,12.63
2022-12-05T20:22:36.791Z,14.47
2022-12-05T20:24:42.957Z,13.83
2022-12-05T20:26:47.545Z,13.93
2022-12-05T20:28:50.733Z,15.13
2022-12-05T20:30:53.726Z,12.60
2022-12-05T20:32:56.688Z,14.60
2022-12-05T20:35:02.004Z,10.80
2022-12-05T20:37:04.973Z,11.10
2022-12-05T20:39:14.996Z,15.80
2022-12-05T20:41:19.602Z,14.53
2022-12-05T20:43:25.766Z,16.07
2022-12-05T20:45:28.734Z,14.33
2022-12-05T20:47:32.133Z,17.60
2022-12-05T20:49:35.151Z,15.50
2022-12-05T20:51:44.613Z,15.70
2022-12-05T20:53:50.776Z,14.17
2022-12-05T20:55:53.654Z,15.93
2022-12-05T20:57:59.275Z,12.80
2022-12-05T21:00:08.647Z,15.30
2022-12-05T21:02:13.790Z,14.40
2022-12-05T21:04:16.937Z,13.23
2022-12-05T21:06:21.835Z,15.50
2022-12-05T21:08:24.892Z,16.20
2022-12-05T21:10:27.921Z,14.93
2022-12-05T21:12:30.869Z,15.17
2022-12-05T21:14:34.292Z,18.40
2022-12-05T21:16:38.789Z,24.73
2022-12-05T21:18:42.201Z,14.83
2022-12-05T21:20:45.447Z,13.67
2022-12-05T21:22:48.365Z,17.30
2022-12-05T21:24:51.256Z,15.50
2022-12-05T21:26:54.221Z,18.00
2022-12-05T21:28:57.617Z,17.60
2022-12-05T21:31:07.036Z,16.73
2022-12-05T21:33:11.723Z,17.30
2022-12-05T21:35:14.689Z,19.93
2022-12-05T21:37:17.673Z,19.13
2022-12-05T21:39:21.004Z,16.40
2022-12-05T21:41:24.107Z,17.67
2022-12-05T21:43:29.830Z,18.53
2022-12-05T21:49:11.393Z,17.60
2022-12-05T21:51:14.695Z,15.63
2022-12-05T21:53:17.896Z,16.90
2022-12-05T21:55:20.867Z,18.33
2022-12-05T21:57:24.213Z,16.80
2022-12-05T21:59:29.332Z,15.53
2022-12-05T22:01:33.232Z,17.40
2022-12-05T22:03:36.419Z,17.10
2022-12-05T22:05:41.115Z,22.33
2022-12-05T22:07:44.185Z,18.13
2022-12-05T22:09:47.202Z,16.23
2022-12-05T22:11:50.275Z,16.43
2022-12-05T22:13:54.621Z,13.63
2022-12-05T22:15:58.951Z,15.40
2022-12-05T22:18:02.203Z,12.70
2022-12-05T22:20:06.867Z,14.67
2022-12-05T22:22:11.350Z,13.27
2022-12-05T22:24:14.473Z,16.07
2022-12-05T22:26:20.870Z,13.77
2022-12-05T22:28:23.751Z,12.93
2022-12-05T22:30:26.716Z,15.60
2022-12-05T22:32:29.884Z,16.90
2022-12-05T22:34:32.886Z,16.90
2022-12-05T22:36:35.891Z,14.20
2022-12-05T22:38:41.879Z,13.70
2022-12-05T22:40:44.922Z,13.40
2022-12-05T22:42:48.025Z,13.70
2022-12-05T22:44:51.260Z,12.40
2022-12-05T22:46:55.080Z,11.83
2022-12-05T22:48:58.406Z,18.83
2022-12-05T22:51:02.729Z,14.10
2022-12-05T22:53:05.599Z,16.77
2022-12-05T22:55:10.411Z,13.87
2022-12-05T22:57:13.381Z,18.77
2022-12-05T22:59:16.778Z,15.03
2022-12-05T23:01:23.129Z,17.87
2022-12-05T23:03:26.114Z,14.27
2022-12-05T23:05:32.037Z,15.63
2022-12-05T23:07:34.982Z,17.40
2022-12-05T23:09:37.883Z,14.77
2022-12-05T23:11:42.181Z,14.30
2022-12-05T23:13:45.665Z,18.40
2022-12-05T23:15:48.597Z,17.33
2022-12-05T23:17:51.483Z,14.93
2022-12-05T23:19:54.352Z,17.53
2022-12-05T23:21:57.540Z,17.23
2022-12-05T23:24:01.798Z,12.87
2022-12-05T23:26:04.623Z,14.80
2022-12-05T23:28:08.883Z,13.03
2022-12-05T23:30:13.341Z,14.57
2022-12-05T23:32:16.547Z,14.13
2022-12-05T23:34:20.019Z,14.93
2022-12-05T23:36:22.869Z,18.00
2022-12-05T23:38:26.250Z,16.70
2022-12-05T23:40:29.162Z,18.10
2022-12-05T23:42:31.992Z,17.67
2022-12-05T23:44:36.944Z,14.07
2022-12-05T23:46:40.629Z,16.93
2022-12-05T23:48:44.180Z,16.40
2022-12-05T23:50:58.014Z,15.80
2022-12-05T23:53:01.925Z,14.33
2022-12-05T23:55:05.644Z,13.63
2022-12-05T23:57:12.129Z,15.70
2022-12-05T23:59:17.839Z,17.20
